createdAt,value
2017-08-24T00:00:06.603Z,0
2017-08-24T00:01:07.351Z,0
2017-08-24T00:02:08.068Z,0
2017-08-24T00:03:08.803Z,0
2017-08-24T00:04:09.535Z,0
2017-08-24T00:05:10.695Z,0
2017-08-24T00:06:11.419Z,0
2017-08-24T00:07:12.232Z,0
2017-08-24T00:08:13.039Z,0
2017-08-24T00:09:13.762Z,0
2017-08-24T00:10:14.507Z,0
2017-08-24T00:11:15.548Z,0
2017-08-24T00:12:16.333Z,0
2017-08-24T00:13:17.074Z,0
2017-08-24T00:14:17.830Z,0
2017-08-24T00:15:18.628Z,0
2017-08-24T00:16:19.763Z,0
2017-08-24T00:17:20.498Z,0
2017-08-24T00:18:21.309Z,0
2017-08-24T00:19:22.113Z,0
2017-08-24T00:21:37.403Z,0
2017-08-24T00:22:38.139Z,0
2017-08-24T00:23:38.978Z,0
2017-08-24T00:24:39.705Z,0
2017-08-24T00:25:40.462Z,0
2017-08-24T00:26:41.235Z,0
2017-08-24T00:27:41.980Z,0
2017-08-24T00:28:43.080Z,0
2017-08-24T00:29:43.868Z,0
2017-08-24T00:30:44.638Z,0
2017-08-24T00:31:45.366Z,0
2017-08-24T00:32:46.099Z,0
2017-08-24T00:33:47.312Z,0
2017-08-24T00:34:48.105Z,0
2017-08-24T00:35:48.935Z,0
2017-08-24T00:36:50.008Z,0
2017-08-24T00:37:50.747Z,0
2017-08-24T00:38:52.474Z,0
2017-08-24T00:41:56.680Z,0
2017-08-24T00:42:58.555Z,0
2017-08-24T00:44:00.326Z,0
2017-08-24T00:45:01.624Z,0
2017-08-24T00:46:02.354Z,0
2017-08-24T00:47:03.093Z,0
2017-08-24T00:48:03.914Z,0
2017-08-24T00:49:05.089Z,0
2017-08-24T00:50:05.828Z,0
2017-08-24T00:51:06.564Z,0
2017-08-24T00:52:07.307Z,0
2017-08-24T00:53:08.055Z,0
2017-08-24T00:54:08.787Z,0
2017-08-24T00:55:09.589Z,0
2017-08-24T00:56:10.369Z,0
2017-08-24T00:57:11.556Z,0
2017-08-24T00:58:12.301Z,0
2017-08-24T00:59:13.081Z,0
2017-08-24T01:00:13.894Z,0
2017-08-24T01:01:14.641Z,0
2017-08-24T01:02:15.576Z,0
2017-08-24T01:03:16.349Z,0
2017-08-24T01:04:17.149Z,0
2017-08-24T01:05:17.958Z,0
2017-08-24T01:06:18.698Z,0
2017-08-24T01:07:19.827Z,0
2017-08-24T01:08:20.648Z,0
2017-08-24T01:09:21.459Z,0
2017-08-24T01:10:22.186Z,0
2017-08-24T01:11:23.010Z,0
2017-08-24T01:12:24.130Z,0
2017-08-24T01:13:24.925Z,0
2017-08-24T01:14:25.678Z,0
2017-08-24T01:15:26.504Z,0
2017-08-24T01:16:27.290Z,0
2017-08-24T01:17:28.094Z,0
2017-08-24T01:18:28.842Z,0
2017-08-24T01:19:29.997Z,0
2017-08-24T01:20:30.725Z,0
2017-08-24T01:21:31.468Z,0
2017-08-24T01:22:32.217Z,0
2017-08-24T01:24:35.468Z,0
2017-08-24T01:25:36.310Z,0
2017-08-24T01:26:37.045Z,0
2017-08-24T01:27:37.784Z,0
2017-08-24T01:28:38.516Z,0
2017-08-24T01:29:40.119Z,0
2017-08-24T01:30:40.863Z,0
2017-08-24T01:31:41.661Z,0
2017-08-24T01:32:42.439Z,0
2017-08-24T01:33:43.190Z,0
2017-08-24T01:34:44.377Z,0
2017-08-24T01:35:45.114Z,0
2017-08-24T01:36:45.845Z,0
2017-08-24T01:37:46.575Z,0
2017-08-24T01:38:47.325Z,0
2017-08-24T01:39:48.538Z,0
2017-08-24T01:40:49.356Z,0
2017-08-24T01:41:50.158Z,0
2017-08-24T01:42:50.931Z,0
2017-08-24T01:43:51.760Z,0
2017-08-24T01:44:52.564Z,0
2017-08-24T01:45:53.304Z,0
2017-08-24T01:46:54.043Z,0
2017-08-24T01:47:55.185Z,0
2017-08-24T01:48:55.924Z,0
2017-08-24T01:49:56.725Z,0
2017-08-24T01:50:57.518Z,0
2017-08-24T01:51:58.295Z,0
2017-08-24T01:52:59.382Z,0
2017-08-24T01:54:00.117Z,0
2017-08-24T01:55:00.848Z,0
2017-08-24T01:56:01.596Z,0
2017-08-24T01:57:02.394Z,0
2017-08-24T01:58:03.820Z,0
2017-08-24T01:59:04.567Z,0
2017-08-24T02:00:05.316Z,0
2017-08-24T02:01:06.050Z,0
2017-08-24T02:02:06.777Z,0
2017-08-24T02:03:07.949Z,0
2017-08-24T02:04:08.682Z,0
2017-08-24T02:05:09.488Z,0
2017-08-24T02:06:10.217Z,0
2017-08-24T02:07:10.944Z,0
2017-08-24T02:08:11.880Z,0
2017-08-24T02:09:12.687Z,0
2017-08-24T02:10:13.428Z,0
2017-08-24T02:11:14.218Z,0
2017-08-24T02:12:14.965Z,0
2017-08-24T02:13:16.047Z,0
2017-08-24T02:14:16.846Z,0
2017-08-24T02:15:17.580Z,0
2017-08-24T02:16:18.320Z,0
2017-08-24T02:17:19.071Z,0
2017-08-24T02:18:20.264Z,0
2017-08-24T02:19:21.023Z,0
2017-08-24T02:20:21.759Z,0
2017-08-24T02:21:22.565Z,0
2017-08-24T02:22:23.307Z,0
2017-08-24T02:23:24.296Z,0
2017-08-24T02:24:25.119Z,0
2017-08-24T02:25:25.884Z,0
2017-08-24T02:26:26.643Z,0
2017-08-24T02:27:27.782Z,0
2017-08-24T02:28:28.841Z,0
2017-08-24T02:29:29.578Z,0
2017-08-24T02:30:30.318Z,0
2017-08-24T02:31:31.045Z,0
2017-08-24T02:32:31.809Z,0
2017-08-24T02:33:32.868Z,0
2017-08-24T02:34:33.608Z,0
2017-08-24T02:35:34.336Z,0
2017-08-24T02:36:35.132Z,0
2017-08-24T02:37:35.879Z,0
2017-08-24T02:38:36.685Z,0
2017-08-24T02:39:37.896Z,0
2017-08-24T02:40:38.679Z,0
2017-08-24T02:41:39.509Z,0
2017-08-24T02:42:40.259Z,0
2017-08-24T02:43:40.977Z,0
2017-08-24T02:44:42.182Z,0
2017-08-24T02:45:42.928Z,0
2017-08-24T02:46:43.741Z,0
2017-08-24T02:47:44.465Z,0
2017-08-24T02:48:45.214Z,0
2017-08-24T02:49:46.284Z,0
2017-08-24T02:50:47.093Z,0
2017-08-24T02:51:47.920Z,0
2017-08-24T02:52:48.711Z,0
2017-08-24T02:53:49.510Z,0
2017-08-24T02:54:50.683Z,0
2017-08-24T02:55:51.465Z,0
2017-08-24T02:56:52.194Z,0
2017-08-24T02:57:52.941Z,0
2017-08-24T02:58:53.751Z,0
2017-08-24T02:59:54.792Z,0
2017-08-24T03:00:55.531Z,0
2017-08-24T03:01:56.271Z,0
2017-08-24T03:02:57.007Z,0
2017-08-24T03:03:57.810Z,0
2017-08-24T03:04:58.879Z,0
2017-08-24T03:05:59.685Z,0
2017-08-24T03:07:00.471Z,0
2017-08-24T03:08:01.212Z,0
2017-08-24T03:09:01.979Z,0
2017-08-24T03:10:03.126Z,0
2017-08-24T03:11:03.868Z,0
2017-08-24T03:12:04.667Z,0
2017-08-24T03:13:05.471Z,0
2017-08-24T03:14:06.200Z,0
2017-08-24T03:15:07.371Z,0
2017-08-24T03:16:08.099Z,0
2017-08-24T03:17:08.829Z,0
2017-08-24T03:18:09.651Z,0
2017-08-24T03:19:10.459Z,0
2017-08-24T03:20:11.392Z,0
2017-08-24T03:21:12.178Z,0
2017-08-24T03:22:12.906Z,0
2017-08-24T03:23:13.648Z,0
2017-08-24T03:24:14.363Z,0
2017-08-24T03:25:15.492Z,0
2017-08-24T03:26:16.287Z,0
2017-08-24T03:27:17.027Z,0
2017-08-24T03:28:17.760Z,0
2017-08-24T03:29:18.489Z,0
2017-08-24T03:30:19.526Z,0
2017-08-24T03:31:20.256Z,0
2017-08-24T03:32:21.061Z,0
2017-08-24T03:33:21.800Z,0
2017-08-24T03:34:22.536Z,0
2017-08-24T03:35:23.679Z,0
2017-08-24T03:36:24.497Z,0
2017-08-24T03:37:25.263Z,0
2017-08-24T03:38:26.002Z,0
2017-08-24T03:39:26.819Z,0
2017-08-24T03:40:27.856Z,0
2017-08-24T03:41:28.658Z,0
2017-08-24T03:42:29.395Z,0
2017-08-24T03:43:30.136Z,0
2017-08-24T03:44:30.877Z,0
2017-08-24T03:45:31.968Z,0
2017-08-24T03:46:32.790Z,0
2017-08-24T03:47:33.584Z,0
2017-08-24T03:48:34.320Z,0
2017-08-24T03:49:35.060Z,0
2017-08-24T03:50:36.065Z,0
2017-08-24T03:51:36.900Z,0
2017-08-24T03:52:37.635Z,4
2017-08-24T03:53:38.385Z,4
2017-08-24T03:54:39.191Z,0
2017-08-24T03:55:40.127Z,4
2017-08-24T03:56:40.939Z,4
2017-08-24T03:57:41.806Z,8
2017-08-24T03:58:42.542Z,8
2017-08-24T03:59:43.367Z,8
2017-08-24T04:00:44.416Z,8
2017-08-24T04:01:45.163Z,8
2017-08-24T04:02:45.988Z,12
2017-08-24T04:03:46.792Z,12
2017-08-24T04:04:47.530Z,8
2017-08-24T04:05:48.536Z,12
2017-08-24T04:06:49.366Z,16
2017-08-24T04:07:50.087Z,16
2017-08-24T04:08:50.829Z,20
2017-08-24T04:09:51.626Z,24
2017-08-24T04:10:52.780Z,20
2017-08-24T04:11:53.535Z,24
2017-08-24T04:12:54.308Z,36
2017-08-24T04:13:55.093Z,40
2017-08-24T04:14:55.837Z,44
2017-08-24T04:15:56.770Z,44
2017-08-24T04:16:57.546Z,44
2017-08-24T04:17:58.263Z,52
2017-08-24T04:18:59.085Z,68
2017-08-24T04:19:59.826Z,64
2017-08-24T04:21:00.595Z,64
2017-08-24T04:22:01.592Z,64
2017-08-24T04:23:02.384Z,68
2017-08-24T04:24:03.120Z,72
2017-08-24T04:25:03.926Z,76
2017-08-24T04:26:04.655Z,72
2017-08-24T04:27:05.586Z,76
2017-08-24T04:28:06.315Z,76
2017-08-24T04:29:07.055Z,76
2017-08-24T04:30:07.884Z,76
2017-08-24T04:31:08.631Z,92
2017-08-24T04:32:09.735Z,88
2017-08-24T04:33:10.475Z,88
2017-08-24T04:34:11.235Z,88
2017-08-24T04:35:12.025Z,76
2017-08-24T04:36:12.780Z,76
2017-08-24T04:37:13.764Z,84
2017-08-24T04:38:14.505Z,80
2017-08-24T04:39:15.247Z,84
2017-08-24T04:40:15.995Z,80
2017-08-24T04:41:16.734Z,92
2017-08-24T04:42:17.770Z,100
2017-08-24T04:43:18.526Z,100
2017-08-24T04:44:19.270Z,108
2017-08-24T04:45:20.064Z,132
2017-08-24T04:46:20.809Z,140
2017-08-24T04:47:21.953Z,132
2017-08-24T04:48:22.756Z,120
2017-08-24T04:49:23.496Z,112
2017-08-24T04:50:24.237Z,124
2017-08-24T04:51:25.066Z,124
2017-08-24T04:52:26.110Z,136
2017-08-24T04:53:26.849Z,140
2017-08-24T04:54:27.587Z,152
2017-08-24T04:55:28.336Z,156
2017-08-24T04:56:29.075Z,172
2017-08-24T04:57:29.834Z,180
2017-08-24T04:58:30.973Z,168
2017-08-24T04:59:31.776Z,156
2017-08-24T05:00:32.521Z,144
2017-08-24T05:01:33.330Z,152
2017-08-24T05:02:34.079Z,156
2017-08-24T05:03:34.809Z,152
2017-08-24T05:04:35.776Z,172
2017-08-24T05:05:36.550Z,180
2017-08-24T05:06:37.295Z,192
2017-08-24T05:07:38.038Z,208
2017-08-24T05:08:38.859Z,276
2017-08-24T05:09:39.899Z,264
2017-08-24T05:10:40.714Z,272
2017-08-24T05:11:41.547Z,276
2017-08-24T05:12:42.277Z,316
2017-08-24T05:13:43.097Z,328
2017-08-24T05:14:44.028Z,348
2017-08-24T05:15:44.777Z,340
2017-08-24T05:16:45.522Z,400
2017-08-24T05:17:46.267Z,436
2017-08-24T05:18:47.025Z,496
2017-08-24T05:19:48.067Z,532
2017-08-24T05:20:48.899Z,512
2017-08-24T05:21:49.729Z,692
2017-08-24T05:22:50.545Z,832
2017-08-24T05:23:51.289Z,812
2017-08-24T05:24:52.527Z,1148
2017-08-24T05:25:53.366Z,1116
2017-08-24T05:26:54.178Z,1132
2017-08-24T05:27:55.026Z,980
2017-08-24T05:28:55.777Z,940
2017-08-24T05:29:56.821Z,808
2017-08-24T05:30:57.571Z,836
2017-08-24T05:31:58.371Z,904
2017-08-24T05:32:59.112Z,928
2017-08-24T05:33:59.950Z,1040
2017-08-24T05:35:01.129Z,976
2017-08-24T05:36:01.878Z,1144
2017-08-24T05:37:02.687Z,1156
2017-08-24T05:38:03.449Z,1208
2017-08-24T05:39:04.209Z,1052
2017-08-24T05:40:05.286Z,1048
2017-08-24T05:41:06.107Z,1004
2017-08-24T05:42:06.911Z,980
2017-08-24T05:43:07.696Z,884
2017-08-24T05:44:08.450Z,772
2017-08-24T05:45:09.616Z,820
2017-08-24T05:46:10.351Z,992
2017-08-24T05:47:11.120Z,860
2017-08-24T05:48:11.859Z,752
2017-08-24T05:49:12.676Z,884
2017-08-24T05:50:13.617Z,960
2017-08-24T05:51:14.371Z,984
2017-08-24T05:52:15.131Z,1084
2017-08-24T05:53:15.935Z,1100
2017-08-24T05:54:16.676Z,896
2017-08-24T05:55:17.818Z,1076
2017-08-24T05:56:18.569Z,1108
2017-08-24T05:57:19.314Z,1408
2017-08-24T05:58:20.069Z,2392
2017-08-24T05:59:20.884Z,2912
2017-08-24T06:00:21.836Z,2552
2017-08-24T06:01:22.578Z,1748
2017-08-24T06:02:23.414Z,1456
2017-08-24T06:03:24.201Z,1564
2017-08-24T06:04:24.944Z,1780
2017-08-24T06:05:25.953Z,1984
2017-08-24T06:06:26.704Z,2212
2017-08-24T06:07:27.447Z,2624
2017-08-24T06:08:28.277Z,2348
2017-08-24T06:09:29.021Z,2508
2017-08-24T06:10:30.056Z,2360
2017-08-24T06:11:30.800Z,2580
2017-08-24T06:12:31.592Z,2672
2017-08-24T06:13:32.397Z,2832
2017-08-24T06:14:33.147Z,3076
2017-08-24T06:15:33.896Z,3216
2017-08-24T06:16:34.716Z,2396
2017-08-24T06:17:35.470Z,1692
2017-08-24T06:18:36.534Z,1564
2017-08-24T06:19:37.348Z,1680
2017-08-24T06:20:38.130Z,2016
2017-08-24T06:21:38.928Z,1984
2017-08-24T06:22:39.670Z,2288
2017-08-24T06:23:40.827Z,2728
2017-08-24T06:24:41.647Z,3008
2017-08-24T06:25:42.405Z,3196
2017-08-24T06:26:43.222Z,3436
2017-08-24T06:27:44.075Z,3372
2017-08-24T06:28:45.287Z,3728
2017-08-24T06:29:46.027Z,3540
2017-08-24T06:30:46.856Z,3344
2017-08-24T06:31:47.610Z,3060
2017-08-24T06:32:48.367Z,3236
2017-08-24T06:33:49.466Z,3472
2017-08-24T06:34:50.275Z,3192
2017-08-24T06:35:51.025Z,3160
2017-08-24T06:36:51.836Z,3044
2017-08-24T06:37:52.586Z,2832
2017-08-24T06:38:53.685Z,2772
2017-08-24T06:39:54.497Z,2592
2017-08-24T06:40:55.246Z,2392
2017-08-24T06:41:55.981Z,2148
2017-08-24T06:42:56.829Z,2016
2017-08-24T06:43:57.828Z,1884
2017-08-24T06:44:58.658Z,2136
2017-08-24T06:45:59.476Z,2584
2017-08-24T06:47:00.220Z,2828
2017-08-24T06:48:00.966Z,3004
2017-08-24T06:49:02.084Z,3016
2017-08-24T06:50:02.804Z,3152
2017-08-24T06:51:03.628Z,3116
2017-08-24T06:52:04.436Z,3112
2017-08-24T06:53:05.167Z,3304
2017-08-24T06:54:05.928Z,3936
2017-08-24T06:55:07.067Z,4284
2017-08-24T06:56:07.809Z,4060
2017-08-24T06:57:08.637Z,4292
2017-08-24T06:58:09.460Z,4668
2017-08-24T06:59:10.279Z,4392
2017-08-24T07:00:11.031Z,4296
2017-08-24T07:01:12.066Z,4712
2017-08-24T07:02:12.812Z,6372
2017-08-24T07:03:13.634Z,7932
2017-08-24T07:04:14.361Z,7324
2017-08-24T07:05:15.171Z,6160
2017-08-24T07:06:16.406Z,6168
2017-08-24T07:07:17.229Z,8824
2017-08-24T07:08:17.957Z,10688
2017-08-24T07:09:18.714Z,9524
2017-08-24T07:10:19.510Z,7908
2017-08-24T07:11:20.248Z,7332
2017-08-24T07:12:21.298Z,9316
2017-08-24T07:13:22.124Z,10164
2017-08-24T07:14:22.875Z,8376
2017-08-24T07:15:23.620Z,6420
2017-08-24T07:16:24.417Z,5980
2017-08-24T07:17:25.158Z,4300
2017-08-24T07:18:26.100Z,3700
2017-08-24T07:19:26.916Z,4220
2017-08-24T07:20:27.718Z,3964
2017-08-24T07:21:28.537Z,5192
2017-08-24T07:22:29.873Z,5140
2017-08-24T07:23:30.770Z,4996
2017-08-24T07:24:31.898Z,4816
2017-08-24T07:25:33.541Z,7316
2017-08-24T07:26:34.416Z,9040
2017-08-24T07:27:35.244Z,7924
2017-08-24T07:28:36.467Z,6632
2017-08-24T07:29:37.221Z,6028
2017-08-24T07:30:37.980Z,4888
2017-08-24T07:31:38.758Z,4112
2017-08-24T07:32:39.503Z,4084
2017-08-24T07:33:40.252Z,5624
2017-08-24T07:34:41.072Z,5620
2017-08-24T07:35:41.816Z,5144
2017-08-24T07:36:42.957Z,7248
2017-08-24T07:37:43.718Z,10996
2017-08-24T07:38:44.548Z,13696
2017-08-24T07:39:45.359Z,14156
2017-08-24T07:40:46.132Z,14084
2017-08-24T07:41:46.957Z,13788
2017-08-24T07:42:48.184Z,12640
2017-08-24T07:43:49.009Z,12164
2017-08-24T07:44:49.737Z,11056
2017-08-24T07:45:50.567Z,10284
2017-08-24T07:46:51.317Z,9836
2017-08-24T07:47:52.054Z,8524
2017-08-24T07:48:53.245Z,8900
2017-08-24T07:49:53.971Z,6864
2017-08-24T07:50:54.785Z,5844
2017-08-24T07:51:55.538Z,5304
2017-08-24T07:52:56.346Z,5652
2017-08-24T07:53:57.379Z,7684
2017-08-24T07:54:58.209Z,8264
2017-08-24T07:55:58.961Z,5252
2017-08-24T07:56:59.809Z,4080
2017-08-24T07:58:00.646Z,5804
2017-08-24T07:59:01.821Z,6508
2017-08-24T08:00:02.629Z,6152
2017-08-24T08:01:03.377Z,4240
2017-08-24T08:02:04.136Z,4612
2017-08-24T08:03:04.877Z,5468
2017-08-24T08:04:06.022Z,6012
2017-08-24T08:05:06.790Z,5624
2017-08-24T08:06:07.625Z,4960
2017-08-24T08:07:08.392Z,3632
2017-08-24T08:08:09.144Z,3132
2017-08-24T08:09:10.287Z,3044
2017-08-24T08:10:11.088Z,2936
2017-08-24T08:11:11.921Z,3148
2017-08-24T08:12:12.677Z,3432
2017-08-24T08:13:13.428Z,3980
2017-08-24T08:14:14.225Z,4728
2017-08-24T08:15:14.966Z,4464
2017-08-24T08:16:15.716Z,4244
2017-08-24T08:17:16.466Z,3980
2017-08-24T08:18:17.547Z,2988
2017-08-24T08:19:18.305Z,2672
2017-08-24T08:20:19.063Z,3432
2017-08-24T08:21:19.847Z,4544
2017-08-24T08:22:20.613Z,7300
2017-08-24T08:23:21.696Z,8396
2017-08-24T08:24:22.433Z,7868
2017-08-24T08:25:23.226Z,6652
2017-08-24T08:26:23.969Z,6452
2017-08-24T08:27:24.749Z,9136
2017-08-24T08:28:25.578Z,11904
2017-08-24T08:29:26.697Z,14896
2017-08-24T08:30:27.526Z,19456
2017-08-24T08:31:28.285Z,39968
2017-08-24T08:32:29.041Z,31424
2017-08-24T08:33:29.832Z,34912
2017-08-24T08:34:30.987Z,40416
2017-08-24T08:35:31.728Z,27680
2017-08-24T08:36:32.485Z,30560
2017-08-24T08:37:33.341Z,24160
2017-08-24T08:38:34.065Z,18976
2017-08-24T08:39:34.877Z,25632
2017-08-24T08:40:36.095Z,27008
2017-08-24T08:41:36.873Z,21120
2017-08-24T08:42:37.659Z,12208
2017-08-24T08:43:38.399Z,9488
2017-08-24T08:44:39.270Z,10568
2017-08-24T08:45:40.290Z,11832
2017-08-24T08:46:41.037Z,12740
2017-08-24T08:47:41.780Z,11972
2017-08-24T08:48:42.583Z,10924
2017-08-24T08:49:43.305Z,13064
2017-08-24T08:50:44.510Z,14624
2017-08-24T08:51:45.247Z,15584
2017-08-24T08:52:46.006Z,14684
2017-08-24T08:53:46.837Z,16084
2017-08-24T08:54:47.739Z,14920
2017-08-24T08:55:48.786Z,15248
2017-08-24T08:56:49.541Z,17228
2017-08-24T08:57:50.339Z,17368
2017-08-24T08:58:51.087Z,17036
2017-08-24T08:59:51.829Z,16548
2017-08-24T09:00:52.647Z,17488
2017-08-24T09:01:53.777Z,17000
2017-08-24T09:02:54.528Z,16984
2017-08-24T09:03:55.361Z,13752
2017-08-24T09:04:56.097Z,11768
2017-08-24T09:05:57.087Z,9152
2017-08-24T09:06:58.328Z,8828
2017-08-24T09:07:59.079Z,10100
2017-08-24T09:08:59.887Z,12136
2017-08-24T09:10:00.646Z,13012
2017-08-24T09:11:01.388Z,14924
2017-08-24T09:12:02.536Z,15160
2017-08-24T09:13:03.286Z,14540
2017-08-24T09:14:04.031Z,13720
2017-08-24T09:15:04.788Z,14520
2017-08-24T09:16:05.598Z,14380
2017-08-24T09:17:06.341Z,13968
2017-08-24T09:18:07.149Z,15308
2017-08-24T09:19:08.341Z,15364
2017-08-24T09:20:09.090Z,14824
2017-08-24T09:21:09.829Z,12948
2017-08-24T09:22:10.577Z,16228
2017-08-24T09:23:11.318Z,13208
2017-08-24T09:24:12.337Z,12740
2017-08-24T09:25:13.083Z,15028
2017-08-24T09:26:13.827Z,15596
2017-08-24T09:27:14.570Z,12120
2017-08-24T09:28:15.406Z,12128
2017-08-24T09:29:16.608Z,13212
2017-08-24T09:30:17.365Z,13732
2017-08-24T09:31:18.133Z,14624
2017-08-24T09:32:18.947Z,16728
2017-08-24T09:33:19.689Z,15444
2017-08-24T09:34:20.436Z,17292
2017-08-24T09:35:21.185Z,23456
2017-08-24T09:36:22.267Z,22592
2017-08-24T09:37:23.023Z,21600
2017-08-24T09:38:23.771Z,22176
2017-08-24T09:39:24.568Z,23488
2017-08-24T09:40:25.317Z,26528
2017-08-24T09:41:26.474Z,28800
2017-08-24T09:42:27.225Z,30272
2017-08-24T09:43:27.966Z,32352
2017-08-24T09:44:28.708Z,31776
2017-08-24T09:45:29.479Z,28064
2017-08-24T09:46:30.651Z,53792
2017-08-24T09:47:31.449Z,32288
2017-08-24T09:48:32.269Z,38368
2017-08-24T09:49:33.089Z,58944
2017-08-24T09:50:33.918Z,84576
2017-08-24T09:51:35.016Z,78976
2017-08-24T09:52:35.763Z,85408
2017-08-24T09:53:36.592Z,52864
2017-08-24T09:54:37.337Z,54912
2017-08-24T09:55:38.089Z,46496
2017-08-24T09:56:39.263Z,30272
2017-08-24T09:57:40.059Z,24800
2017-08-24T09:58:40.872Z,25856
2017-08-24T09:59:41.715Z,27232
2017-08-24T10:00:42.457Z,28768
2017-08-24T10:01:43.636Z,28672
2017-08-24T10:02:44.367Z,26944
2017-08-24T10:03:45.154Z,23200
2017-08-24T10:04:45.946Z,17888
2017-08-24T10:05:46.696Z,14520
2017-08-24T10:06:47.522Z,14592
2017-08-24T10:07:48.283Z,18912
2017-08-24T10:08:49.101Z,30400
2017-08-24T10:09:50.157Z,30240
2017-08-24T10:10:50.996Z,29248
2017-08-24T10:11:51.726Z,28576
2017-08-24T10:12:52.490Z,45440
2017-08-24T10:13:53.301Z,70912
2017-08-24T10:14:54.614Z,77632
2017-08-24T10:15:55.379Z,74112
2017-08-24T10:16:56.191Z,74496
2017-08-24T10:17:57.017Z,61312
2017-08-24T10:18:57.776Z,60064
2017-08-24T10:19:58.849Z,54368
2017-08-24T10:20:59.645Z,66144
2017-08-24T10:22:00.444Z,47008
2017-08-24T10:23:01.293Z,66688
2017-08-24T10:24:02.101Z,55424
2017-08-24T10:25:02.864Z,76736
2017-08-24T10:26:03.658Z,51872
2017-08-24T10:27:04.481Z,35744
2017-08-24T10:28:05.694Z,29664
2017-08-24T10:29:06.601Z,35392
2017-08-24T10:30:07.332Z,67936
2017-08-24T10:31:08.113Z,43040
2017-08-24T10:32:08.797Z,34720
2017-08-24T10:33:09.875Z,50496
2017-08-24T10:34:10.691Z,63104
2017-08-24T10:35:11.505Z,54560
2017-08-24T10:36:12.242Z,77440
2017-08-24T10:37:12.987Z,68928
2017-08-24T10:38:14.390Z,68160
2017-08-24T10:39:15.348Z,61344
2017-08-24T10:40:16.493Z,55136
2017-08-24T10:41:17.306Z,72608
2017-08-24T10:42:18.060Z,37088
2017-08-24T10:43:18.877Z,51488
2017-08-24T10:44:19.634Z,71936
2017-08-24T10:45:20.806Z,42656
2017-08-24T10:46:21.560Z,56352
2017-08-24T10:47:22.382Z,38144
2017-08-24T10:48:23.187Z,33408
2017-08-24T10:49:23.933Z,68928
2017-08-24T10:50:24.696Z,77024
2017-08-24T10:51:25.850Z,55008
2017-08-24T10:52:26.653Z,32832
2017-08-24T10:53:27.478Z,25792
2017-08-24T10:54:28.302Z,50016
2017-08-24T10:55:29.053Z,74464
2017-08-24T10:56:30.214Z,68768
2017-08-24T10:57:31.016Z,67264
2017-08-24T10:58:31.761Z,71296
2017-08-24T10:59:32.508Z,67168
2017-08-24T11:00:33.255Z,64896
2017-08-24T11:01:34.010Z,64640
2017-08-24T11:02:34.836Z,71296
2017-08-24T11:03:35.887Z,35744
2017-08-24T11:04:36.698Z,30784
2017-08-24T11:05:37.535Z,80384
2017-08-24T11:06:38.288Z,80000
2017-08-24T11:07:39.044Z,56160
2017-08-24T11:08:39.874Z,71712
2017-08-24T11:09:40.886Z,38496
2017-08-24T11:10:41.694Z,75520
2017-08-24T11:11:42.392Z,77376
2017-08-24T11:12:43.232Z,79232
2017-08-24T11:13:44.059Z,43744
2017-08-24T11:14:45.105Z,68928
2017-08-24T11:15:45.858Z,84256
2017-08-24T11:16:46.682Z,61344
2017-08-24T11:17:47.443Z,85312
2017-08-24T11:18:48.245Z,82112
2017-08-24T11:19:49.053Z,60448
2017-08-24T11:20:50.212Z,81280
2017-08-24T11:21:50.967Z,80000
2017-08-24T11:22:51.731Z,83616
2017-08-24T11:23:52.521Z,82368
2017-08-24T11:24:53.353Z,82848
2017-08-24T11:25:54.585Z,88928
2017-08-24T11:26:55.377Z,87392
2017-08-24T11:27:56.126Z,79584
2017-08-24T11:28:56.884Z,87008
2017-08-24T11:29:57.691Z,76288
2017-08-24T11:30:58.627Z,76000
2017-08-24T11:31:59.375Z,86336
2017-08-24T11:33:00.109Z,69760
2017-08-24T11:34:00.857Z,70432
2017-08-24T11:35:01.608Z,52896
2017-08-24T11:36:03.089Z,66080
2017-08-24T11:37:03.908Z,38816
2017-08-24T11:38:04.786Z,35360
2017-08-24T11:39:05.529Z,37856
2017-08-24T11:40:06.276Z,38240
2017-08-24T11:41:07.327Z,39392
2017-08-24T11:42:08.078Z,36352
2017-08-24T11:43:08.837Z,32864
2017-08-24T11:44:09.586Z,38912
2017-08-24T11:45:10.330Z,38048
2017-08-24T11:46:11.346Z,36128
2017-08-24T11:47:12.152Z,29088
2017-08-24T11:48:12.905Z,53376
2017-08-24T11:49:13.650Z,28384
2017-08-24T11:50:14.396Z,31072
2017-08-24T11:51:15.343Z,63744
2017-08-24T11:52:16.094Z,61888
2017-08-24T11:53:16.882Z,45536
2017-08-24T11:54:17.627Z,63328
2017-08-24T11:55:18.377Z,69056
2017-08-24T11:56:19.426Z,52448
2017-08-24T11:57:20.176Z,83072
2017-08-24T11:58:21.019Z,37792
2017-08-24T11:59:21.777Z,36992
2017-08-24T12:00:22.551Z,34432
2017-08-24T12:01:23.607Z,45024
2017-08-24T12:02:24.654Z,49984
2017-08-24T12:03:25.354Z,75360
2017-08-24T12:04:26.105Z,77696
2017-08-24T12:05:26.912Z,75744
2017-08-24T12:06:28.088Z,74624
2017-08-24T12:07:28.910Z,39232
2017-08-24T12:08:29.725Z,56416
2017-08-24T12:09:30.560Z,69664
2017-08-24T12:10:31.414Z,67040
2017-08-24T12:11:32.411Z,70880
2017-08-24T12:12:33.159Z,74496
2017-08-24T12:13:33.910Z,67072
2017-08-24T12:14:34.770Z,34560
2017-08-24T12:15:35.572Z,24832
2017-08-24T12:16:36.380Z,23392
2017-08-24T12:17:37.166Z,23008
2017-08-24T12:18:38.219Z,23168
2017-08-24T12:19:39.048Z,23200
2017-08-24T12:20:39.875Z,27808
2017-08-24T12:21:40.638Z,27872
2017-08-24T12:22:41.448Z,25312
2017-08-24T12:23:42.462Z,24992
2017-08-24T12:24:43.292Z,37472
2017-08-24T12:25:44.046Z,47680
2017-08-24T12:26:44.799Z,44640
2017-08-24T12:27:45.550Z,57440
2017-08-24T12:28:46.510Z,54176
2017-08-24T12:29:47.351Z,58304
2017-08-24T12:30:48.195Z,64448
2017-08-24T12:31:48.946Z,63040
2017-08-24T12:32:49.696Z,65184
2017-08-24T12:33:50.796Z,64832
2017-08-24T12:34:51.546Z,32640
2017-08-24T12:35:52.296Z,28640
2017-08-24T12:36:53.048Z,62208
2017-08-24T12:37:53.898Z,67552
2017-08-24T12:38:54.736Z,39488
2017-08-24T12:39:55.485Z,63680
2017-08-24T12:40:56.321Z,34624
2017-08-24T12:41:57.379Z,24256
2017-08-24T12:42:58.188Z,24896
2017-08-24T12:43:58.941Z,60800
2017-08-24T12:44:59.752Z,61696
2017-08-24T12:46:00.584Z,27744
2017-08-24T12:47:01.326Z,21888
2017-08-24T12:48:02.081Z,19936
2017-08-24T12:49:02.896Z,25024
2017-08-24T12:50:03.659Z,44320
2017-08-24T12:51:04.457Z,57664
2017-08-24T12:52:05.260Z,58464
2017-08-24T12:53:05.997Z,60640
2017-08-24T12:54:07.225Z,64288
2017-08-24T12:55:07.971Z,64640
2017-08-24T12:56:08.751Z,65568
2017-08-24T12:57:09.682Z,48288
2017-08-24T12:58:10.538Z,27424
2017-08-24T12:59:11.844Z,63552
2017-08-24T13:00:12.891Z,29408
2017-08-24T13:01:13.729Z,64704
2017-08-24T13:02:14.603Z,62176
2017-08-24T13:03:15.617Z,62560
2017-08-24T13:04:16.436Z,58848
2017-08-24T13:05:17.257Z,59744
2017-08-24T13:06:18.086Z,31424
2017-08-24T13:07:18.838Z,31264
2017-08-24T13:08:19.667Z,29472
2017-08-24T13:09:20.715Z,20768
2017-08-24T13:10:21.538Z,25248
2017-08-24T13:11:22.378Z,39360
2017-08-24T13:12:23.120Z,58912
2017-08-24T13:13:23.868Z,61984
2017-08-24T13:14:25.028Z,61600
2017-08-24T13:15:25.877Z,65440
2017-08-24T13:16:26.719Z,32096
2017-08-24T13:17:27.533Z,35168
2017-08-24T13:18:28.287Z,32896
2017-08-24T13:19:29.041Z,25760
2017-08-24T13:20:29.808Z,26752
2017-08-24T13:21:31.027Z,51776
2017-08-24T13:22:31.883Z,53856
2017-08-24T13:23:32.719Z,59264
2017-08-24T13:24:33.543Z,56480
2017-08-24T13:25:34.293Z,55104
2017-08-24T13:26:35.431Z,52352
2017-08-24T13:27:36.252Z,55936
2017-08-24T13:28:37.004Z,36032
2017-08-24T13:29:37.836Z,29408
2017-08-24T13:30:38.632Z,58400
2017-08-24T13:31:39.634Z,61408
2017-08-24T13:32:40.519Z,60736
2017-08-24T13:33:41.355Z,30272
2017-08-24T13:34:42.164Z,63392
2017-08-24T13:35:42.941Z,58720
2017-08-24T13:36:43.750Z,60352
2017-08-24T13:37:44.541Z,59936
2017-08-24T13:38:45.551Z,43584
2017-08-24T13:39:46.299Z,24384
2017-08-24T13:40:47.134Z,16744
2017-08-24T13:41:47.961Z,17104
2017-08-24T13:42:48.718Z,22272
2017-08-24T13:43:49.824Z,39456
2017-08-24T13:44:50.578Z,52416
2017-08-24T13:45:51.396Z,21792
2017-08-24T13:46:52.146Z,19840
2017-08-24T13:47:52.908Z,41888
2017-08-24T13:48:53.979Z,26688
2017-08-24T13:49:54.730Z,44448
2017-08-24T13:50:55.577Z,35200